Decoded Metar for MMCE (CIUDAD DEL CARMEN in MEXICO) (IATA:CME) | Meteo·Mobile Aviation Weather
aviador You're here:

MMCE Decoded Metar

CIUDAD DEL CARMEN in MEXICO
Report Time2018-09-22 17:42:00
UTC Time2018-09-22 18:44:44
Flight Rules vfr VFR
Wind090° at 08 kt
W.Decomp.*RWY 13: 5.9 kt HW 5.4 kt LCW
W.Rank090° ranks 4
Current wind is below 090° avg. (8.1)
Visibility9999 m
Phenomena:N/A
Clouds:Scattered 015 Hf
Expected CloudBase > 2,400 ft AGL from Temp-Dew spread
CeilingNone
Temp30°C (ISA +15)
Dew Point24°C (70% RH)
Heat Index35.0°C
QNH1013 hPa
Density Alt2,119 ft
Elevation7 ft
Report Wrong Elevation
Raw Report
METAR MMCE 221742Z 09008KT 7SM SCT015 30/24 A2991 RMK SLP125 57004
963 8/200 MDT CU=

Extra information for MMCE:More info

Metar Taf Metar & Taf Last 4 Metars F.Rules Stats Wind Profile Meteogram Temp Stats Airport Information Weather charts Add Link Nearby VenuesMetar ALERT Operation Metar Decoded Social comments